Time;durP1;ratioP1;P1;durP2;ratioP2;P2;SDS_P1;SDS_P2;PMS_P1;PMS_P2;Temp;Humidity;BMP_temperature;BMP_pressure;BME280_temperature;BME280_humidity;BME280_pressure;Samples;Min_cycle;Max_cycle;Signal;HPM_P1;HPM_P2
2022/09/09 00:01:24;;;;;;;10.75;7.53;;;15.60;99.90;;;;;;5072967;28;20052;-79
2022/09/09 00:04:02;;;;;;;14.20;8.35;;;15.10;99.90;;;;;;5073017;28;20053;-79
2022/09/09 00:06:31;;;;;;;12.60;7.95;;;15.40;99.90;;;;;;5073284;28;20440;-79
2022/09/09 00:09:09;;;;;;;10.98;7.78;;;15.30;99.90;;;;;;5072876;28;20060;-79
2022/09/09 00:12:15;;;;;;;15.13;8.95;;;15.20;99.90;;;;;;5072949;28;20045;-78
2022/09/09 00:15:33;;;;;;;11.80;8.15;;;15.30;99.90;;;;;;5076657;28;20119;-78
2022/09/09 00:18:35;;;;;;;11.35;7.95;;;15.20;99.90;;;;;;5073058;28;20396;-78
2022/09/09 00:21:05;;;;;;;13.00;8.40;;;15.30;99.90;;;;;;5075605;28;20189;-79
2022/09/09 00:23:44;;;;;;;11.90;8.57;;;15.20;99.90;;;;;;5075596;28;20056;-79
2022/09/09 00:26:22;;;;;;;13.45;7.57;;;15.30;99.90;;;;;;5076313;28;20100;-78
2022/09/09 00:29:07;;;;;;;10.70;8.55;;;15.20;99.90;;;;;;5075304;28;20063;-78
2022/09/09 00:31:33;;;;;;;9.25;7.75;;;15.30;99.90;;;;;;5075173;28;20059;-78
2022/09/09 00:34:12;;;;;;;11.23;8.05;;;15.10;99.90;;;;;;5075134;28;20108;-80
2022/09/09 00:36:39;;;;;;;11.95;7.97;;;15.20;99.90;;;;;;5076525;28;20048;-79
2022/09/09 00:39:09;;;;;;;12.35;7.97;;;15.00;99.90;;;;;;5075521;28;20044;-80
2022/09/09 00:41:35;;;;;;;12.63;8.55;;;15.20;99.90;;;;;;5075937;28;20098;-79
2022/09/09 00:44:15;;;;;;;14.48;8.73;;;15.00;99.90;;;;;;5076025;28;20088;-79
2022/09/09 00:47:07;;;;;;;11.38;8.02;;;15.10;99.90;;;;;;5075975;28;20080;-79
2022/09/09 00:49:51;;;;;;;12.32;8.32;;;15.10;99.90;;;;;;5075902;28;20049;-79
2022/09/09 00:52:25;;;;;;;10.25;7.35;;;14.40;99.90;;;;;;5075815;28;20083;-80
2022/09/09 00:55:33;;;;;;;11.77;8.23;;;15.10;99.90;;;;;;5075783;28;20044;-79
2022/09/09 00:57:59;;;;;;;10.27;8.00;;;15.10;99.90;;;;;;5076050;28;20044;-79
2022/09/09 01:00:28;;;;;;;12.10;7.80;;;15.00;99.90;;;;;;5058917;28;20369;-79
2022/09/09 01:03:10;;;;;;;11.15;8.13;;;14.90;99.90;;;;;;5074703;28;20060;-79
2022/09/09 01:05:42;;;;;;;12.25;8.32;;;15.10;99.90;;;;;;5075334;28;20068;-78
2022/09/09 01:08:38;;;;;;;12.70;8.13;;;14.90;99.90;;;;;;5074487;28;20092;-78
2022/09/09 01:11:04;;;;;;;11.07;8.13;;;14.90;99.90;;;;;;5073941;28;20044;-79
2022/09/09 01:13:33;;;;;;;11.85;7.90;;;14.60;99.90;;;;;;5075488;28;20049;-79
2022/09/09 01:16:05;;;;;;;12.13;8.25;;;15.00;99.90;;;;;;5075368;28;20087;-79
2022/09/09 01:18:39;;;;;;;11.20;8.15;;;14.80;99.90;;;;;;5074542;28;20049;-79
2022/09/09 01:21:33;;;;;;;11.15;8.48;;;14.70;99.90;;;;;;5075655;28;20044;-79
2022/09/09 01:24:10;;;;;;;;;;;14.60;99.90;;;;;;5075684;28;20048;-79
2022/09/09 01:26:48;;;;;;;14.68;8.35;;;15.00;99.90;;;;;;5073968;28;20018;-79
2022/09/09 01:29:16;;;;;;;11.45;8.27;;;14.80;99.90;;;;;;5073804;28;20480;-79
2022/09/09 01:31:52;;;;;;;13.93;7.85;;;14.90;99.90;;;;;;5075047;28;20098;-79
2022/09/09 01:34:19;;;;;;;12.63;7.68;;;14.70;99.90;;;;;;5074213;28;20049;-79
2022/09/09 01:36:51;;;;;;;13.60;7.60;;;14.70;99.90;;;;;;5073988;28;20067;-79
2022/09/09 01:39:17;;;;;;;;;;;14.80;99.90;;;;;;5057204;28;20045;-80
2022/09/09 01:41:43;;;;;;;16.63;9.20;;;14.50;99.90;;;;;;5074949;28;19966;-80
2022/09/09 01:44:10;;;;;;;12.40;8.07;;;14.60;99.90;;;;;;5074831;28;20473;-80
2022/09/09 01:46:36;;;;;;;13.52;8.18;;;14.70;99.90;;;;;;5074739;28;20119;-80
2022/09/09 01:49:05;;;;;;;13.27;8.05;;;14.60;99.90;;;;;;5074675;28;20523;-79
2022/09/09 01:51:31;;;;;;;12.43;8.25;;;14.50;99.90;;;;;;5073441;28;20044;-80
2022/09/09 01:53:56;;;;;;;12.07;7.90;;;14.50;99.90;;;;;;5074661;28;20067;-80
2022/09/09 01:56:39;;;;;;;11.13;7.70;;;14.60;99.90;;;;;;5074495;28;20036;-80
2022/09/09 01:59:14;;;;;;;12.38;8.40;;;14.60;99.90;;;;;;5057019;28;20060;-80
2022/09/09 02:01:43;;;;;;;11.13;7.70;;;14.80;99.90;;;;;;5075203;28;20036;-80
2022/09/09 02:04:25;;;;;;;12.88;8.23;;;14.90;99.90;;;;;;5073202;28;20097;-80
2022/09/09 02:06:55;;;;;;;8.98;7.47;;;14.70;99.90;;;;;;5056409;28;20052;-79
2022/09/09 02:09:23;;;;;;;10.82;7.75;;;14.60;99.90;;;;;;5073111;28;20065;-80
2022/09/09 02:12:01;;;;;;;16.75;8.55;;;14.80;99.90;;;;;;5074240;28;20044;-80
2022/09/09 02:14:36;;;;;;;9.77;7.15;;;14.60;99.90;;;;;;5074245;28;20049;-79
2022/09/09 02:17:08;;;;;;;13.93;7.70;;;14.50;99.90;;;;;;5074131;28;20055;-80
2022/09/09 02:19:48;;;;;;;8.85;6.70;;;14.40;99.90;;;;;;5074752;28;20366;-79
2022/09/09 02:22:17;;;;;;;9.95;6.93;;;14.50;99.90;;;;;;5056266;28;20485;-79
2022/09/09 02:24:44;;;;;;;13.07;7.03;;;14.50;99.90;;;;;;5056611;28;20130;-79
2022/09/09 02:27:11;;;;;;;12.93;6.90;;;14.60;99.90;;;;;;5073998;28;20051;-79
2022/09/09 02:29:44;;;;;;;10.60;7.38;;;14.50;99.90;;;;;;5073071;28;20149;-80
2022/09/09 02:32:23;;;;;;;9.98;6.85;;;14.60;99.90;;;;;;5074084;28;20141;-80
2022/09/09 02:35:02;;;;;;;10.57;6.75;;;14.50;99.90;;;;;;5072769;28;20076;-79
2022/09/09 02:37:36;;;;;;;9.50;6.47;;;14.50;99.90;;;;;;5072800;28;20067;-79
2022/09/09 02:40:06;;;;;;;9.48;6.53;;;14.70;99.90;;;;;;5072281;28;20049;-79
2022/09/09 02:42:38;;;;;;;8.00;5.45;;;14.60;99.90;;;;;;5074019;28;20049;-79
2022/09/09 02:45:04;;;;;;;10.27;7.18;;;14.50;99.90;;;;;;5073750;28;20058;-79
2022/09/09 02:48:01;;;;;;;11.82;6.38;;;14.60;99.90;;;;;;5072619;28;20046;-79
2022/09/09 02:50:37;;;;;;;11.38;6.80;;;14.80;99.90;;;;;;5070126;28;20559;-78
2022/09/09 02:53:02;;;;;;;9.45;5.72;;;14.60;99.90;;;;;;5072311;28;20079;-79
2022/09/09 02:55:31;;;;;;;8.45;5.68;;;14.50;99.90;;;;;;5072492;28;20045;-78
2022/09/09 02:57:59;;;;;;;10.10;5.95;;;14.60;99.90;;;;;;5072530;28;20078;-79
2022/09/09 03:00:28;;;;;;;9.15;5.57;;;14.40;99.90;;;;;;5073574;28;20044;-79
2022/09/09 03:02:54;;;;;;;7.40;5.68;;;14.50;99.90;;;;;;5072655;28;20456;-78
2022/09/09 03:05:21;;;;;;;10.50;5.72;;;14.40;99.90;;;;;;5072267;28;20094;-79
2022/09/09 03:07:47;;;;;;;13.75;6.38;;;14.50;99.90;;;;;;5073625;28;20052;-79
2022/09/09 03:10:13;;;;;;;8.23;5.65;;;14.50;99.90;;;;;;5071909;28;20484;-78
2022/09/09 03:12:39;;;;;;;9.35;5.18;;;14.50;99.90;;;;;;5055787;28;20048;-79
2022/09/09 03:15:06;;;;;;;8.57;5.15;;;14.70;99.90;;;;;;5055796;28;20088;-79
2022/09/09 03:17:31;;;;;;;8.20;5.53;;;14.60;99.90;;;;;;5072087;28;20075;-79
2022/09/09 03:19:58;;;;;;;7.53;5.13;;;14.60;99.90;;;;;;5072499;28;20048;-79
2022/09/09 03:22:25;;;;;;;8.77;5.20;;;14.70;99.90;;;;;;5073457;28;20052;-80
2022/09/09 03:24:51;;;;;;;9.85;5.43;;;14.60;99.90;;;;;;5072405;28;20374;-80
2022/09/09 03:27:19;;;;;;;8.23;4.85;;;14.70;99.90;;;;;;5073295;28;20044;-79
2022/09/09 03:29:45;;;;;;;9.68;5.60;;;14.70;99.90;;;;;;5073366;28;20055;-80
2022/09/09 03:32:12;;;;;;;9.40;5.20;;;15.00;99.90;;;;;;5072977;28;20535;-80
2022/09/09 03:34:42;;;;;;;10.93;5.82;;;15.00;99.90;;;;;;5072178;28;20496;-79
2022/09/09 03:37:07;;;;;;;7.25;5.20;;;14.90;99.90;;;;;;5072402;28;20041;-79
2022/09/09 03:39:33;;;;;;;8.18;5.32;;;14.80;99.90;;;;;;5072321;28;20040;-80
2022/09/09 03:41:59;;;;;;;6.90;5.38;;;15.00;99.90;;;;;;5073585;28;20048;-80
2022/09/09 03:44:24;;;;;;;8.95;5.28;;;15.10;99.90;;;;;;5072495;28;20049;-79
2022/09/09 03:46:50;;;;;;;8.90;5.07;;;15.10;99.90;;;;;;5055418;28;20044;-79
2022/09/09 03:49:16;;;;;;;10.15;5.30;;;14.90;99.90;;;;;;5058670;28;20048;-79
2022/09/09 03:51:42;;;;;;;11.35;4.63;;;15.10;99.90;;;;;;5075898;28;20044;-79
2022/09/09 03:54:10;;;;;;;9.27;5.00;;;15.00;99.90;;;;;;5077181;28;20408;-79
2022/09/09 03:56:36;;;;;;;6.70;4.45;;;15.10;99.90;;;;;;5076031;28;20047;-79
2022/09/09 03:59:03;;;;;;;6.45;4.40;;;15.00;99.90;;;;;;5076948;28;20106;-79
2022/09/09 04:01:28;;;;;;;6.45;3.65;;;15.10;99.90;;;;;;5077695;28;20381;-79
2022/09/09 04:03:57;;;;;;;7.80;4.25;;;14.90;99.90;;;;;;5076789;28;20163;-79
2022/09/09 04:06:24;;;;;;;8.63;4.00;;;15.20;99.90;;;;;;5075084;28;20060;-78
2022/09/09 04:08:50;;;;;;;8.00;4.32;;;15.10;99.90;;;;;;5076722;28;20071;-79
2022/09/09 04:11:16;;;;;;;6.55;3.25;;;15.00;99.90;;;;;;5075415;28;20119;-79
2022/09/09 04:13:44;;;;;;;7.38;3.45;;;15.00;99.90;;;;;;5076687;28;20389;-80
2022/09/09 04:16:11;;;;;;;7.75;4.25;;;15.00;99.90;;;;;;5076659;28;20048;-80
2022/09/09 04:18:37;;;;;;;9.38;3.58;;;14.90;99.90;;;;;;5076703;28;20132;-80
2022/09/09 04:21:04;;;;;;;4.22;3.00;;;15.10;99.90;;;;;;5076599;28;20076;-79
2022/09/09 04:23:30;;;;;;;4.97;3.13;;;15.10;99.90;;;;;;5075453;28;20123;-79
2022/09/09 04:25:57;;;;;;;5.32;2.72;;;15.10;99.90;;;;;;5075262;28;20408;-80
2022/09/09 04:28:26;;;;;;;5.28;3.03;;;15.20;99.90;;;;;;5076678;28;20044;-80
2022/09/09 04:30:52;;;;;;;5.22;3.08;;;15.10;99.90;;;;;;5076586;28;20045;-80
2022/09/09 04:33:18;;;;;;;6.13;3.33;;;15.20;99.90;;;;;;5075514;28;20045;-80
2022/09/09 04:35:45;;;;;;;6.63;3.40;;;15.00;99.90;;;;;;5075405;28;20041;-80
2022/09/09 04:38:11;;;;;;;6.35;3.67;;;15.00;99.90;;;;;;5076270;28;20051;-80
2022/09/09 04:40:42;;;;;;;5.55;3.20;;;15.30;99.90;;;;;;5075090;28;20404;-80
2022/09/09 04:43:08;;;;;;;5.68;3.90;;;15.10;99.90;;;;;;5076463;28;20051;-80
2022/09/09 04:45:34;;;;;;;5.28;3.42;;;15.20;99.90;;;;;;5076344;28;20048;-80
2022/09/09 04:48:00;;;;;;;7.53;3.90;;;15.30;99.90;;;;;;5075123;28;20102;-80
2022/09/09 04:50:26;;;;;;;7.10;3.45;;;15.20;99.90;;;;;;5076168;28;20131;-80
2022/09/09 04:52:52;;;;;;;7.35;4.05;;;15.10;99.90;;;;;;5075932;28;20124;-79
2022/09/09 04:55:17;;;;;;;8.55;4.38;;;15.40;99.90;;;;;;5075094;28;20040;-80
2022/09/09 04:57:43;;;;;;;7.25;3.67;;;15.10;99.90;;;;;;5076052;28;20049;-80
2022/09/09 05:00:10;;;;;;;6.85;3.72;;;15.10;99.90;;;;;;5075524;28;20048;-79
2022/09/09 05:02:41;;;;;;;6.30;3.65;;;15.10;99.90;;;;;;5075943;28;20056;-80
2022/09/09 05:05:07;;;;;;;6.35;4.10;;;15.10;99.90;;;;;;5075496;28;20056;-78
2022/09/09 05:07:32;;;;;;;8.77;4.47;;;15.20;99.90;;;;;;5074446;28;20484;-80
2022/09/09 05:09:58;;;;;;;8.30;4.53;;;15.10;99.90;;;;;;5075050;28;20084;-80
2022/09/09 05:12:25;;;;;;;8.77;5.88;;;15.10;99.90;;;;;;5074419;28;20040;-79
2022/09/09 05:14:52;;;;;;;8.70;5.72;;;15.10;99.90;;;;;;5074519;28;20044;-80
2022/09/09 05:17:17;;;;;;;8.18;5.38;;;15.10;99.90;;;;;;5075687;28;20041;-80
2022/09/09 05:19:43;;;;;;;10.95;6.07;;;15.10;99.90;;;;;;5075553;28;20542;-80
2022/09/09 05:22:11;;;;;;;10.55;6.15;;;15.10;99.90;;;;;;5075399;28;20537;-80
2022/09/09 05:24:37;;;;;;;10.25;5.28;;;15.00;99.90;;;;;;5075062;28;20056;-80
2022/09/09 05:27:05;;;;;;;8.18;4.93;;;15.00;99.90;;;;;;5075283;28;20040;-80
2022/09/09 05:29:33;;;;;;;6.88;5.03;;;15.00;99.90;;;;;;5075380;28;20400;-81
2022/09/09 05:31:59;;;;;;;10.93;4.97;;;15.00;99.90;;;;;;5073911;28;20106;-79
2022/09/09 05:34:25;;;;;;;7.72;5.35;;;15.00;99.90;;;;;;5075743;28;20113;-80
2022/09/09 05:36:52;;;;;;;7.82;5.25;;;14.90;99.90;;;;;;5074096;28;20520;-79
2022/09/09 05:39:18;;;;;;;7.22;4.40;;;15.00;99.90;;;;;;5074701;28;20044;-79
2022/09/09 05:41:44;;;;;;;8.52;4.53;;;15.10;99.90;;;;;;5075141;28;20041;-80
2022/09/09 05:44:09;;;;;;;7.60;4.53;;;15.20;99.90;;;;;;5074115;28;20110;-79
2022/09/09 05:46:35;;;;;;;7.65;4.72;;;15.00;99.90;;;;;;5075103;28;20036;-80
2022/09/09 05:49:02;;;;;;;7.95;4.97;;;15.00;99.90;;;;;;5074637;28;20052;-80
2022/09/09 05:51:30;;;;;;;8.07;4.35;;;15.00;99.90;;;;;;5073400;28;20049;-80
2022/09/09 05:53:58;;;;;;;7.63;4.00;;;15.00;99.90;;;;;;5074638;28;20048;-80
2022/09/09 05:56:26;;;;;;;9.00;3.90;;;15.10;99.90;;;;;;5073950;28;20032;-79
2022/09/09 05:58:53;;;;;;;10.45;4.65;;;14.90;99.90;;;;;;5074915;28;20052;-80
2022/09/09 06:01:40;;;;;;;6.03;4.43;;;15.00;99.90;;;;;;5074549;28;20071;-80
2022/09/09 06:04:07;;;;;;;7.20;4.10;;;15.00;99.90;;;;;;5073772;28;20123;-80
2022/09/09 06:06:39;;;;;;;7.00;4.22;;;14.80;99.90;;;;;;5074680;28;20056;-80
2022/09/09 06:09:09;;;;;;;7.32;4.38;;;14.80;99.90;;;;;;5074456;28;20052;-80
2022/09/09 06:11:36;;;;;;;6.55;4.25;;;15.00;99.90;;;;;;5073170;28;20049;-80
2022/09/09 06:14:03;;;;;;;6.55;3.78;;;15.00;99.90;;;;;;5073224;28;20052;-80
2022/09/09 06:16:29;;;;;;;6.00;3.97;;;14.90;99.90;;;;;;5073213;28;20055;-80
2022/09/09 06:18:56;;;;;;;7.78;4.53;;;14.90;99.90;;;;;;5074113;28;20057;-79
2022/09/09 06:21:24;;;;;;;8.10;4.15;;;15.10;99.90;;;;;;5074772;28;20048;-80
2022/09/09 06:23:53;;;;;;;8.27;4.50;;;15.10;99.90;;;;;;5074264;28;20476;-80
2022/09/09 06:26:24;;;;;;;7.53;4.13;;;15.30;99.90;;;;;;5073163;28;20048;-79
2022/09/09 06:28:52;;;;;;;5.63;4.00;;;15.00;99.90;;;;;;5074202;28;20071;-79
2022/09/09 06:31:21;;;;;;;7.88;4.45;;;15.30;99.90;;;;;;5074230;28;20461;-80
2022/09/09 06:33:49;;;;;;;5.80;4.03;;;15.10;99.90;;;;;;5073225;28;20502;-79
2022/09/09 06:36:30;;;;;;;7.38;4.30;;;15.00;99.90;;;;;;5074114;28;20055;-80
2022/09/09 06:38:56;;;;;;;7.07;4.00;;;14.90;99.90;;;;;;5074180;28;20052;-80
2022/09/09 06:41:26;;;;;;;8.35;4.80;;;15.10;99.90;;;;;;5055899;28;20045;-80
2022/09/09 06:43:52;;;;;;;12.20;5.63;;;15.20;99.90;;;;;;5073894;28;20047;-79
2022/09/09 06:46:23;;;;;;;7.78;4.10;;;15.10;99.90;;;;;;5073897;28;20044;-79
2022/09/09 06:48:49;;;;;;;8.63;5.20;;;15.20;99.90;;;;;;5073808;28;20472;-80
2022/09/09 06:51:23;;;;;;;9.18;5.55;;;15.20;99.90;;;;;;5073883;28;20093;-79
2022/09/09 06:53:54;;;;;;;7.30;4.95;;;15.20;99.90;;;;;;5073625;28;20512;-80
2022/09/09 06:56:28;;;;;;;6.65;4.90;;;15.30;99.90;;;;;;5073907;28;20045;-80
2022/09/09 06:58:55;;;;;;;7.70;4.90;;;15.40;99.90;;;;;;5073785;28;20044;-80
2022/09/09 07:01:27;;;;;;;7.72;5.28;;;15.30;99.90;;;;;;5072458;28;20052;-79
2022/09/09 07:03:55;;;;;;;7.28;5.72;;;15.30;99.90;;;;;;5073640;28;20049;-80
2022/09/09 07:06:26;;;;;;;9.90;5.00;;;15.30;99.90;;;;;;5072152;28;20126;-80
2022/09/09 07:08:52;;;;;;;8.45;5.25;;;15.40;99.90;;;;;;5073937;28;20056;-79
2022/09/09 07:11:20;;;;;;;7.38;5.13;;;15.60;99.90;;;;;;5073214;28;20040;-80
2022/09/09 07:13:47;;;;;;;9.10;5.20;;;15.50;99.90;;;;;;5072497;28;20086;-80
2022/09/09 07:16:16;;;;;;;5.35;4.18;;;15.60;99.90;;;;;;5072549;28;20396;-79
2022/09/09 07:18:41;;;;;;;8.63;4.60;;;15.60;99.90;;;;;;5073548;28;20149;-79
2022/09/09 07:21:08;;;;;;;8.90;5.40;;;15.70;99.90;;;;;;5072664;28;20084;-79
2022/09/09 07:23:35;;;;;;;7.80;4.97;;;15.80;99.90;;;;;;5077444;28;20060;-79
2022/09/09 07:26:02;;;;;;;7.47;4.60;;;15.80;99.90;;;;;;5076707;28;20044;-79
2022/09/09 07:28:29;;;;;;;6.03;4.20;;;15.70;99.90;;;;;;5077631;28;20048;-78
2022/09/09 07:31:02;;;;;;;7.78;4.55;;;16.00;99.90;;;;;;5059585;28;20052;-77
2022/09/09 07:33:33;;;;;;;8.75;3.90;;;16.00;99.90;;;;;;5076514;28;20052;-76
2022/09/09 07:36:38;;;;;;;6.80;4.40;;;15.90;99.90;;;;;;5077463;28;20045;-76
2022/09/09 07:39:07;;;;;;;6.57;4.10;;;16.00;99.90;;;;;;5074120;28;20488;-78
2022/09/09 07:41:39;;;;;;;6.65;4.18;;;16.10;99.90;;;;;;5075962;28;20484;-75
2022/09/09 07:44:07;;;;;;;6.18;4.32;;;16.10;99.90;;;;;;5076265;28;20036;-76
2022/09/09 07:46:34;;;;;;;7.25;5.30;;;16.00;99.90;;;;;;5076028;28;20093;-76
2022/09/09 07:49:00;;;;;;;7.40;4.35;;;16.00;99.90;;;;;;5077122;28;20056;-76
2022/09/09 07:51:29;;;;;;;6.93;4.57;;;16.10;99.90;;;;;;5077170;28;20044;-75
2022/09/09 07:53:57;;;;;;;5.10;3.97;;;16.00;99.90;;;;;;5075827;28;20059;-77
2022/09/09 07:56:24;;;;;;;10.25;4.97;;;16.20;99.90;;;;;;5076943;28;20079;-76
2022/09/09 07:58:52;;;;;;;7.88;4.57;;;16.30;99.90;;;;;;5075758;28;20388;-75
2022/09/09 08:01:48;;;;;;;6.55;4.13;;;16.30;99.90;;;;;;5077112;28;20048;-75
2022/09/09 08:04:17;;;;;;;5.25;3.70;;;16.40;99.90;;;;;;5076979;28;20047;-77
2022/09/09 08:06:48;;;;;;;5.75;4.03;;;16.30;99.90;;;;;;5076912;28;20057;-77
2022/09/09 08:09:15;;;;;;;4.55;3.72;;;16.40;99.90;;;;;;5076573;28;20115;-79
2022/09/09 08:11:41;;;;;;;4.45;3.60;;;16.60;99.90;;;;;;5058178;28;20105;-78
2022/09/09 08:14:08;;;;;;;6.45;3.13;;;16.40;99.90;;;;;;5076250;28;20093;-78
2022/09/09 08:16:37;;;;;;;6.25;4.20;;;16.50;99.90;;;;;;5075182;28;20105;-78
2022/09/09 08:19:03;;;;;;;5.53;3.28;;;16.50;99.90;;;;;;5075183;28;20048;-78
2022/09/09 08:21:31;;;;;;;5.78;3.83;;;16.80;99.90;;;;;;5076094;28;20124;-79
2022/09/09 08:24:00;;;;;;;6.55;3.92;;;16.60;99.90;;;;;;5058486;28;20048;-80
2022/09/09 08:26:31;;;;;;;4.88;4.10;;;16.60;99.90;;;;;;5076021;28;20032;-78
2022/09/09 08:28:59;;;;;;;5.53;4.05;;;16.80;99.90;;;;;;5076018;28;20167;-79
2022/09/09 08:31:31;;;;;;;6.38;4.22;;;16.70;99.90;;;;;;5074652;28;20139;-78
2022/09/09 08:34:03;;;;;;;5.65;3.90;;;16.90;99.90;;;;;;5074283;28;20133;-78
2022/09/09 08:36:31;;;;;;;5.50;3.83;;;16.90;99.90;;;;;;5072647;28;20056;-78
2022/09/09 08:38:57;;;;;;;5.90;4.07;;;16.90;99.90;;;;;;5075809;28;20041;-78
2022/09/09 08:41:26;;;;;;;6.25;4.00;;;16.90;99.90;;;;;;5082785;28;20071;-77
2022/09/09 08:44:02;;;;;;;8.77;4.30;;;16.70;99.90;;;;;;5058079;28;20052;-77
2022/09/09 08:46:51;;;;;;;5.47;3.55;;;16.60;99.90;;;;;;5073277;28;20033;-78
2022/09/09 08:49:46;;;;;;;5.35;3.88;;;17.00;99.90;;;;;;5068008;28;20059;-76
2022/09/09 08:52:37;;;;;;;5.22;3.78;;;16.80;99.90;;;;;;5070890;28;20076;-76
2022/09/09 08:55:24;;;;;;;6.63;3.67;;;16.80;99.90;;;;;;5070189;28;20044;-76
2022/09/09 08:57:53;;;;;;;7.68;5.18;;;16.80;99.90;;;;;;5065876;28;20040;-76
2022/09/09 09:00:20;;;;;;;6.53;4.05;;;16.80;99.90;;;;;;5069894;28;20373;-76
2022/09/09 09:03:00;;;;;;;5.15;4.03;;;16.90;99.90;;;;;;5071905;28;20055;-76
2022/09/09 09:05:46;;;;;;;5.75;4.13;;;17.00;99.90;;;;;;5069339;28;20048;-77
2022/09/09 09:08:12;;;;;;;6.45;4.05;;;17.00;99.90;;;;;;5067726;28;20135;-78
2022/09/09 09:10:43;;;;;;;7.72;4.38;;;17.00;99.90;;;;;;5066947;28;20054;-77
2022/09/09 09:13:20;;;;;;;5.15;3.58;;;16.90;99.90;;;;;;5068051;28;20048;-76
2022/09/09 09:15:53;;;;;;;6.35;3.80;;;17.00;99.90;;;;;;5068148;28;20060;-77
2022/09/09 09:18:19;;;;;;;6.18;3.90;;;17.40;99.90;;;;;;5069139;28;20119;-77
2022/09/09 09:21:12;;;;;;;5.45;3.88;;;17.30;99.90;;;;;;5067731;28;20139;-76
2022/09/09 09:23:53;;;;;;;4.13;3.22;;;17.30;99.90;;;;;;5068719;28;20052;-76
2022/09/09 09:26:22;;;;;;;4.65;3.90;;;17.40;99.90;;;;;;5069897;28;20033;-76
2022/09/09 09:28:47;;;;;;;7.43;4.65;;;17.60;99.90;;;;;;5068958;28;20051;-77
2022/09/09 09:31:13;;;;;;;5.43;3.47;;;17.60;99.90;;;;;;5069359;28;20040;-77
2022/09/09 09:33:49;;;;;;;6.43;3.95;;;18.00;99.90;;;;;;5070141;28;20044;-76
2022/09/09 09:36:16;;;;;;;7.25;4.25;;;17.50;99.90;;;;;;5069084;28;20044;-77
2022/09/09 09:39:00;;;;;;;7.43;3.70;;;17.60;99.90;;;;;;5068030;28;20056;-77
2022/09/09 09:41:45;;;;;;;5.28;3.95;;;17.80;99.90;;;;;;5050702;28;20052;-76
2022/09/09 09:44:26;;;;;;;7.97;4.07;;;18.00;99.90;;;;;;5069149;28;20500;-77
2022/09/09 09:46:53;;;;;;;8.38;4.20;;;18.20;99.90;;;;;;5062995;28;20576;-78
2022/09/09 09:49:18;;;;;;;5.15;4.65;;;18.10;99.90;;;;;;5076310;28;20056;-77
2022/09/09 09:51:44;;;;;;;6.18;4.47;;;18.00;99.90;;;;;;5065043;28;20077;-77
2022/09/09 09:54:13;;;;;;;6.20;4.32;;;18.10;99.90;;;;;;5067208;28;20047;-78
2022/09/09 09:56:40;;;;;;;7.65;3.38;;;18.10;99.90;;;;;;5068659;28;20477;-78
2022/09/09 09:59:18;;;;;;;6.82;3.92;;;18.00;99.90;;;;;;5063623;28;20135;-78
2022/09/09 10:01:44;;;;;;;9.25;4.28;;;17.80;99.90;;;;;;5065466;28;20048;-79
2022/09/09 10:04:16;;;;;;;6.70;4.25;;;18.00;99.90;;;;;;5068122;28;20045;-78
2022/09/09 10:06:42;;;;;;;4.05;3.63;;;18.40;99.90;;;;;;5066027;28;20067;-78
2022/09/09 10:09:26;;;;;;;5.50;2.90;;;18.00;99.90;;;;;;5065666;28;20384;-78
2022/09/09 10:12:12;;;;;;;5.22;2.80;;;18.20;99.90;;;;;;5065545;28;20048;-81
2022/09/09 10:14:57;;;;;;;7.20;2.50;;;18.10;99.90;;;;;;5066233;28;20088;-79
2022/09/09 10:17:31;;;;;;;6.13;2.65;;;18.00;99.90;;;;;;5067353;28;20101;-79
2022/09/09 10:20:32;;;;;;;4.50;2.22;;;18.10;99.90;;;;;;5068985;28;20054;-77
2022/09/09 10:23:28;;;;;;;3.20;1.65;;;18.20;99.90;;;;;;5067683;28;20052;-78
2022/09/09 10:26:28;;;;;;;6.38;1.70;;;18.20;99.90;;;;;;5068653;28;20036;-78
2022/09/09 10:29:05;;;;;;;5.57;1.83;;;18.20;99.90;;;;;;5067089;28;20053;-78
2022/09/09 10:31:49;;;;;;;3.78;1.30;;;18.30;99.90;;;;;;5068102;28;20503;-78
2022/09/09 10:34:23;;;;;;;4.35;1.40;;;18.30;99.90;;;;;;5069520;28;20040;-78
2022/09/09 10:36:50;;;;;;;4.80;1.88;;;18.30;99.90;;;;;;5067743;28;20582;-77
2022/09/09 10:39:35;;;;;;;5.13;1.77;;;18.30;99.90;;;;;;5069475;28;20063;-76
2022/09/09 10:42:12;;;;;;;5.00;1.80;;;18.30;99.90;;;;;;5067247;28;20502;-78
2022/09/09 10:45:10;;;;;;;7.43;1.70;;;18.30;99.90;;;;;;5067643;28;20400;-76
2022/09/09 10:48:06;;;;;;;3.70;1.38;;;18.30;99.90;;;;;;5068563;28;20055;-77
2022/09/09 10:50:52;;;;;;;5.47;1.40;;;18.40;99.90;;;;;;5067101;28;20063;-77
2022/09/09 10:53:31;;;;;;;3.78;1.27;;;18.50;99.90;;;;;;5066373;28;20048;-77
2022/09/09 10:56:02;;;;;;;5.82;1.40;;;18.50;99.90;;;;;;5064172;28;20107;-77
2022/09/09 10:58:35;;;;;;;5.60;1.67;;;18.50;99.90;;;;;;5067582;28;20052;-76
2022/09/09 11:01:15;;;;;;;6.65;1.75;;;18.60;99.90;;;;;;5065963;28;20044;-80
2022/09/09 11:03:43;;;;;;;4.30;1.20;;;18.60;99.90;;;;;;5065150;28;20416;-78
2022/09/09 11:06:17;;;;;;;5.03;1.58;;;18.60;99.90;;;;;;5047510;28;20121;-79
2022/09/09 11:08:45;;;;;;;7.80;1.70;;;18.70;99.90;;;;;;5067409;28;20496;-77
2022/09/09 11:11:17;;;;;;;4.72;1.23;;;18.80;99.90;;;;;;5065760;28;20426;-76
2022/09/09 11:13:56;;;;;;;4.63;1.35;;;18.80;99.90;;;;;;5066660;28;20059;-81
2022/09/09 11:16:38;;;;;;;3.05;1.08;;;18.90;99.90;;;;;;5048480;28;20044;-78
2022/09/09 11:19:28;;;;;;;5.18;1.17;;;18.90;99.90;;;;;;5068312;28;20048;-78
2022/09/09 11:21:57;;;;;;;2.95;0.80;;;19.00;99.90;;;;;;5066838;28;20510;-78
2022/09/09 11:24:50;;;;;;;4.05;1.02;;;19.00;99.90;;;;;;5067622;28;20047;-81
2022/09/09 11:27:19;;;;;;;3.65;0.90;;;19.30;99.90;;;;;;5049942;28;20048;-79
2022/09/09 11:30:15;;;;;;;4.70;1.13;;;19.10;99.90;;;;;;5066369;28;20397;-78
2022/09/09 11:33:08;;;;;;;4.45;0.98;;;19.20;99.90;;;;;;5066854;28;20045;-77
2022/09/09 11:35:52;;;;;;;5.13;0.90;;;19.20;99.90;;;;;;5064306;28;20052;-78
2022/09/09 11:38:29;;;;;;;3.13;0.80;;;19.10;99.90;;;;;;5067132;28;20059;-78
2022/09/09 11:41:07;;;;;;;5.88;0.90;;;19.10;99.90;;;;;;5064132;28;20467;-81
2022/09/09 11:43:32;;;;;;;5.43;1.13;;;19.10;99.90;;;;;;5065167;28;20052;-79
2022/09/09 11:46:02;;;;;;;2.00;0.90;;;19.10;99.90;;;;;;5064284;28;20521;-80
2022/09/09 11:48:35;;;;;;;4.25;1.52;;;19.10;99.90;;;;;;5064393;28;20386;-80
2022/09/09 11:51:10;;;;;;;5.35;1.38;;;19.10;99.90;;;;;;5063268;28;20052;-81
2022/09/09 11:53:49;;;;;;;2.45;0.93;;;19.20;99.90;;;;;;5064061;28;20071;-78
2022/09/09 11:56:31;;;;;;;4.72;0.90;;;19.20;99.90;;;;;;5065744;28;20513;-80
2022/09/09 11:59:03;;;;;;;3.35;1.00;;;19.20;99.90;;;;;;5061969;28;20052;-81
2022/09/09 12:01:33;;;;;;;7.78;1.25;;;19.20;99.90;;;;;;5064396;28;20388;-79
2022/09/09 12:04:10;;;;;;;5.25;1.02;;;19.20;99.90;;;;;;5064576;28;20048;-79
2022/09/09 12:06:49;;;;;;;4.65;1.27;;;19.20;99.90;;;;;;5063088;28;20052;-79
2022/09/09 12:09:33;;;;;;;3.55;1.05;;;19.10;99.90;;;;;;5066299;28;20078;-78
2022/09/09 12:12:08;;;;;;;4.35;0.90;;;19.10;99.90;;;;;;5067020;28;20056;-78
2022/09/09 12:14:37;;;;;;;3.60;0.85;;;19.10;99.90;;;;;;5069781;28;20047;-80
2022/09/09 12:17:14;;;;;;;3.45;0.98;;;19.20;99.90;;;;;;5069058;28;20049;-79
2022/09/09 12:19:41;;;;;;;4.15;1.23;;;19.20;99.90;;;;;;5067226;28;20068;-79
2022/09/09 12:22:32;;;;;;;6.38;1.08;;;19.20;99.90;;;;;;5068294;28;20067;-79
2022/09/09 12:25:04;;;;;;;2.92;1.00;;;19.20;99.90;;;;;;5067275;28;20048;-79
2022/09/09 12:28:07;;;;;;;4.18;1.15;;;19.20;99.90;;;;;;5068025;28;20094;-78
2022/09/09 12:30:56;;;;;;;3.85;1.55;;;19.10;99.90;;;;;;5067695;28;20102;-78
2022/09/09 12:33:23;;;;;;;3.63;0.95;;;19.10;99.90;;;;;;5068242;28;21019;-79
2022/09/09 12:35:57;;;;;;;3.20;1.00;;;19.10;99.90;;;;;;5066131;28;20105;-82
2022/09/09 12:38:34;;;;;;;2.90;1.00;;;19.10;99.90;;;;;;5066856;28;20052;-79
2022/09/09 12:41:00;;;;;;;3.65;0.90;;;19.20;99.90;;;;;;5067576;28;20123;-83
2022/09/09 12:43:27;;;;;;;3.55;0.90;;;19.20;99.90;;;;;;5068703;28;20040;-80
2022/09/09 12:46:04;;;;;;;3.47;0.70;;;19.20;99.90;;;;;;5067597;28;20052;-81
2022/09/09 12:48:41;;;;;;;3.22;0.90;;;19.30;99.90;;;;;;5050958;28;20484;-80
2022/09/09 12:51:26;;;;;;;3.40;0.80;;;19.30;99.90;;;;;;5067381;28;20463;-78
2022/09/09 12:53:53;;;;;;;4.28;0.95;;;19.40;99.90;;;;;;5081895;28;20040;-82
2022/09/09 12:56:31;;;;;;;2.20;0.82;;;19.40;99.90;;;;;;5067363;28;20048;-81
2022/09/09 12:58:58;;;;;;;3.67;0.77;;;19.40;99.90;;;;;;5066582;28;20052;-80
2022/09/09 13:01:30;;;;;;;5.30;0.70;;;19.40;99.90;;;;;;5063923;28;20056;-79
2022/09/09 13:03:56;;;;;;;5.30;0.77;;;19.50;99.90;;;;;;5073196;28;20126;-79
2022/09/09 13:06:31;;;;;;;2.97;0.60;;;19.70;99.90;;;;;;5073882;28;20063;-78
2022/09/09 13:09:03;;;;;;;3.75;0.52;;;19.80;99.90;;;;;;5072790;28;20128;-78
2022/09/09 13:11:41;;;;;;;3.35;0.85;;;19.90;99.90;;;;;;5071123;28;20511;-79
2022/09/09 13:14:19;;;;;;;4.13;0.68;;;20.00;99.90;;;;;;5073950;28;20045;-80